sensor_id;sensor_type;location;lat;lon;timestamp;pressure;altitude;pressure_sealevel;temperature
49154;BMP280;49455;52.252;9.124;2023-05-13T00:00:39;99927.00;;;12.14
49154;BMP280;49455;52.252;9.124;2023-05-13T00:05:39;99926.13;;;12.15
49154;BMP280;49455;52.252;9.124;2023-05-13T00:10:40;99922.72;;;12.16
49154;BMP280;49455;52.252;9.124;2023-05-13T00:15:40;99929.56;;;12.14
49154;BMP280;49455;52.252;9.124;2023-05-13T00:20:40;99930.22;;;12.06
49154;BMP280;49455;52.252;9.124;2023-05-13T00:25:41;99927.97;;;11.85
49154;BMP280;49455;52.252;9.124;2023-05-13T00:30:42;99927.59;;;11.71
49154;BMP280;49455;52.252;9.124;2023-05-13T00:35:43;99926.81;;;11.75
49154;BMP280;49455;52.252;9.124;2023-05-13T00:40:43;99928.81;;;11.84
49154;BMP280;49455;52.252;9.124;2023-05-13T00:45:44;99929.41;;;11.75
49154;BMP280;49455;52.252;9.124;2023-05-13T00:50:45;99927.13;;;11.54
49154;BMP280;49455;52.252;9.124;2023-05-13T00:55:46;99930.38;;;11.48
49154;BMP280;49455;52.252;9.124;2023-05-13T01:06:15;99928.38;;;11.39
49154;BMP280;49455;52.252;9.124;2023-05-13T01:11:23;99921.41;;;11.35
49154;BMP280;49455;52.252;9.124;2023-05-13T01:16:30;99922.81;;;11.24
49154;BMP280;49455;52.252;9.124;2023-05-13T01:21:34;99924.31;;;11.18
49154;BMP280;49455;52.252;9.124;2023-05-13T01:26:35;99926.53;;;11.05
49154;BMP280;49455;52.252;9.124;2023-05-13T01:31:37;99930.72;;;11.01
49154;BMP280;49455;52.252;9.124;2023-05-13T01:36:38;99932.31;;;10.96
49154;BMP280;49455;52.252;9.124;2023-05-13T01:41:40;99933.78;;;10.88
49154;BMP280;49455;52.252;9.124;2023-05-13T01:46:44;99941.88;;;10.71
49154;BMP280;49455;52.252;9.124;2023-05-13T01:51:46;99945.50;;;10.50
49154;BMP280;49455;52.252;9.124;2023-05-13T01:56:46;99943.72;;;10.48
49154;BMP280;49455;52.252;9.124;2023-05-13T02:01:47;99950.13;;;10.32
49154;BMP280;49455;52.252;9.124;2023-05-13T02:06:47;99947.75;;;10.40
49154;BMP280;49455;52.252;9.124;2023-05-13T02:11:48;99948.41;;;10.33
49154;BMP280;49455;52.252;9.124;2023-05-13T02:16:49;99939.72;;;10.31
49154;BMP280;49455;52.252;9.124;2023-05-13T02:21:50;99949.00;;;10.25
49154;BMP280;49455;52.252;9.124;2023-05-13T02:26:50;99945.28;;;10.17
49154;BMP280;49455;52.252;9.124;2023-05-13T02:31:50;99941.41;;;10.04
49154;BMP280;49455;52.252;9.124;2023-05-13T02:36:51;99948.56;;;10.11
49154;BMP280;49455;52.252;9.124;2023-05-13T02:41:51;99949.28;;;10.07
49154;BMP280;49455;52.252;9.124;2023-05-13T02:46:52;99943.38;;;9.87
49154;BMP280;49455;52.252;9.124;2023-05-13T02:51:53;99947.47;;;9.80
49154;BMP280;49455;52.252;9.124;2023-05-13T02:56:58;99949.09;;;9.78
49154;BMP280;49455;52.252;9.124;2023-05-13T03:01:59;99944.72;;;9.76
49154;BMP280;49455;52.252;9.124;2023-05-13T03:07:00;99950.66;;;9.73
49154;BMP280;49455;52.252;9.124;2023-05-13T03:12:01;99941.91;;;9.45
49154;BMP280;49455;52.252;9.124;2023-05-13T03:17:02;99950.81;;;9.53
49154;BMP280;49455;52.252;9.124;2023-05-13T03:22:03;99956.06;;;9.56
49154;BMP280;49455;52.252;9.124;2023-05-13T03:27:04;99953.97;;;9.46
49154;BMP280;49455;52.252;9.124;2023-05-13T03:32:06;99962.28;;;9.38
49154;BMP280;49455;52.252;9.124;2023-05-13T03:37:06;99951.78;;;9.34
49154;BMP280;49455;52.252;9.124;2023-05-13T03:42:07;99956.72;;;9.28
49154;BMP280;49455;52.252;9.124;2023-05-13T03:47:08;99958.75;;;9.36
49154;BMP280;49455;52.252;9.124;2023-05-13T03:52:08;99958.91;;;9.17
49154;BMP280;49455;52.252;9.124;2023-05-13T03:57:09;99971.22;;;9.24
49154;BMP280;49455;52.252;9.124;2023-05-13T04:02:09;99968.91;;;9.32
49154;BMP280;49455;52.252;9.124;2023-05-13T04:07:10;99965.81;;;9.41
49154;BMP280;49455;52.252;9.124;2023-05-13T04:12:10;99964.47;;;9.51
49154;BMP280;49455;52.252;9.124;2023-05-13T04:17:11;99973.94;;;9.52
49154;BMP280;49455;52.252;9.124;2023-05-13T04:22:11;99962.19;;;9.60
49154;BMP280;49455;52.252;9.124;2023-05-13T04:27:11;99974.81;;;9.75
49154;BMP280;49455;52.252;9.124;2023-05-13T04:32:12;99986.00;;;9.76
49154;BMP280;49455;52.252;9.124;2023-05-13T04:37:12;99980.50;;;9.90
49154;BMP280;49455;52.252;9.124;2023-05-13T04:42:14;99986.09;;;10.02
49154;BMP280;49455;52.252;9.124;2023-05-13T04:47:14;99992.03;;;10.24
49154;BMP280;49455;52.252;9.124;2023-05-13T04:52:15;99993.44;;;10.41
49154;BMP280;49455;52.252;9.124;2023-05-13T04:57:15;99991.34;;;10.56
49154;BMP280;49455;52.252;9.124;2023-05-13T05:02:16;100005.72;;;10.48
49154;BMP280;49455;52.252;9.124;2023-05-13T05:07:16;100003.13;;;10.48
49154;BMP280;49455;52.252;9.124;2023-05-13T05:12:17;100001.75;;;10.58
49154;BMP280;49455;52.252;9.124;2023-05-13T05:17:18;100011.19;;;10.57
49154;BMP280;49455;52.252;9.124;2023-05-13T05:22:19;100003.81;;;10.68
49154;BMP280;49455;52.252;9.124;2023-05-13T05:27:19;100009.78;;;10.93
49154;BMP280;49455;52.252;9.124;2023-05-13T05:32:20;100002.69;;;11.16
49154;BMP280;49455;52.252;9.124;2023-05-13T05:37:20;100005.75;;;11.30
49154;BMP280;49455;52.252;9.124;2023-05-13T05:42:21;100014.56;;;11.37
49154;BMP280;49455;52.252;9.124;2023-05-13T05:47:21;100013.28;;;11.50
49154;BMP280;49455;52.252;9.124;2023-05-13T05:52:22;100014.34;;;11.57
49154;BMP280;49455;52.252;9.124;2023-05-13T05:57:23;100010.56;;;11.46
49154;BMP280;49455;52.252;9.124;2023-05-13T06:02:23;100009.16;;;11.57
49154;BMP280;49455;52.252;9.124;2023-05-13T06:07:25;100008.47;;;11.62
49154;BMP280;49455;52.252;9.124;2023-05-13T06:12:26;100007.50;;;11.91
49154;BMP280;49455;52.252;9.124;2023-05-13T06:17:26;100015.00;;;12.11
49154;BMP280;49455;52.252;9.124;2023-05-13T06:22:27;100017.38;;;12.36
49154;BMP280;49455;52.252;9.124;2023-05-13T06:27:27;100012.69;;;12.56
49154;BMP280;49455;52.252;9.124;2023-05-13T06:32:28;100010.50;;;12.72
49154;BMP280;49455;52.252;9.124;2023-05-13T06:37:28;100017.97;;;12.94
49154;BMP280;49455;52.252;9.124;2023-05-13T06:42:29;100012.38;;;13.14
49154;BMP280;49455;52.252;9.124;2023-05-13T06:47:33;100010.97;;;13.28
49154;BMP280;49455;52.252;9.124;2023-05-13T06:52:33;100021.47;;;13.32
49154;BMP280;49455;52.252;9.124;2023-05-13T06:57:34;100018.03;;;13.35
49154;BMP280;49455;52.252;9.124;2023-05-13T07:02:34;100025.72;;;13.71
49154;BMP280;49455;52.252;9.124;2023-05-13T07:07:35;100024.69;;;14.03
49154;BMP280;49455;52.252;9.124;2023-05-13T07:12:35;100023.16;;;14.15
49154;BMP280;49455;52.252;9.124;2023-05-13T07:17:36;100026.91;;;14.30
49154;BMP280;49455;52.252;9.124;2023-05-13T07:22:36;100024.75;;;14.55
49154;BMP280;49455;52.252;9.124;2023-05-13T07:27:36;100022.97;;;14.53
49154;BMP280;49455;52.252;9.124;2023-05-13T07:32:37;100027.66;;;14.73
49154;BMP280;49455;52.252;9.124;2023-05-13T07:37:38;100030.44;;;14.85
49154;BMP280;49455;52.252;9.124;2023-05-13T07:42:39;100028.84;;;14.94
49154;BMP280;49455;52.252;9.124;2023-05-13T07:47:39;100023.22;;;15.20
49154;BMP280;49455;52.252;9.124;2023-05-13T07:52:40;100027.03;;;15.46
49154;BMP280;49455;52.252;9.124;2023-05-13T07:57:40;100027.16;;;15.56
49154;BMP280;49455;52.252;9.124;2023-05-13T08:02:41;100020.56;;;15.82
49154;BMP280;49455;52.252;9.124;2023-05-13T08:07:42;100027.00;;;16.13
49154;BMP280;49455;52.252;9.124;2023-05-13T08:12:42;100019.59;;;16.56
49154;BMP280;49455;52.252;9.124;2023-05-13T08:17:42;100022.41;;;16.78
49154;BMP280;49455;52.252;9.124;2023-05-13T08:22:43;100011.16;;;16.90
49154;BMP280;49455;52.252;9.124;2023-05-13T08:27:43;100015.75;;;17.14
49154;BMP280;49455;52.252;9.124;2023-05-13T08:32:44;100009.72;;;17.30
49154;BMP280;49455;52.252;9.124;2023-05-13T08:37:44;100003.06;;;17.94
49154;BMP280;49455;52.252;9.124;2023-05-13T08:42:46;100006.63;;;18.19
49154;BMP280;49455;52.252;9.124;2023-05-13T08:47:51;100000.56;;;18.46
49154;BMP280;49455;52.252;9.124;2023-05-13T08:52:52;100003.19;;;18.69
49154;BMP280;49455;52.252;9.124;2023-05-13T08:57:52;99990.97;;;18.73
49154;BMP280;49455;52.252;9.124;2023-05-13T09:02:53;99997.06;;;18.79
49154;BMP280;49455;52.252;9.124;2023-05-13T09:07:53;100002.31;;;18.67
49154;BMP280;49455;52.252;9.124;2023-05-13T09:12:54;99995.34;;;19.00
49154;BMP280;49455;52.252;9.124;2023-05-13T09:18:05;99992.66;;;19.25
49154;BMP280;49455;52.252;9.124;2023-05-13T09:23:08;99999.69;;;19.11
49154;BMP280;49455;52.252;9.124;2023-05-13T09:28:13;99984.81;;;19.25
49154;BMP280;49455;52.252;9.124;2023-05-13T09:33:15;99992.59;;;19.49
49154;BMP280;49455;52.252;9.124;2023-05-13T09:38:21;99987.25;;;19.71
49154;BMP280;49455;52.252;9.124;2023-05-13T09:43:30;99990.59;;;20.08
49154;BMP280;49455;52.252;9.124;2023-05-13T09:48:32;100006.28;;;20.17
49154;BMP280;49455;52.252;9.124;2023-05-13T09:53:33;99993.28;;;20.04
49154;BMP280;49455;52.252;9.124;2023-05-13T09:58:34;99993.88;;;20.41
49154;BMP280;49455;52.252;9.124;2023-05-13T10:03:34;99989.53;;;20.37
49154;BMP280;49455;52.252;9.124;2023-05-13T10:08:36;99987.66;;;20.54
49154;BMP280;49455;52.252;9.124;2023-05-13T10:13:38;99987.56;;;20.69
49154;BMP280;49455;52.252;9.124;2023-05-13T10:18:38;99985.88;;;20.61
49154;BMP280;49455;52.252;9.124;2023-05-13T10:23:39;99980.66;;;20.55
49154;BMP280;49455;52.252;9.124;2023-05-13T10:28:39;99983.78;;;20.98
49154;BMP280;49455;52.252;9.124;2023-05-13T10:33:42;99981.53;;;21.49
49154;BMP280;49455;52.252;9.124;2023-05-13T10:39:33;99970.16;;;21.47
49154;BMP280;49455;52.252;9.124;2023-05-13T10:44:36;99974.19;;;21.74
49154;BMP280;49455;52.252;9.124;2023-05-13T10:49:37;99966.38;;;21.70
49154;BMP280;49455;52.252;9.124;2023-05-13T10:54:39;99968.56;;;22.01
49154;BMP280;49455;52.252;9.124;2023-05-13T11:00:14;99971.91;;;22.14
49154;BMP280;49455;52.252;9.124;2023-05-13T11:05:19;99971.22;;;21.98
49154;BMP280;49455;52.252;9.124;2023-05-13T11:10:24;99968.69;;;21.92
49154;BMP280;49455;52.252;9.124;2023-05-13T11:15:42;99975.34;;;22.19
49154;BMP280;49455;52.252;9.124;2023-05-13T11:20:50;99966.44;;;22.29
49154;BMP280;49455;52.252;9.124;2023-05-13T11:26:11;99954.13;;;22.28
49154;BMP280;49455;52.252;9.124;2023-05-13T11:31:15;99955.09;;;22.24
49154;BMP280;49455;52.252;9.124;2023-05-13T11:36:16;99948.19;;;22.70
49154;BMP280;49455;52.252;9.124;2023-05-13T11:41:16;99958.09;;;22.54
49154;BMP280;49455;52.252;9.124;2023-05-13T11:46:21;99941.38;;;23.07
49154;BMP280;49455;52.252;9.124;2023-05-13T11:51:22;99953.41;;;23.22
49154;BMP280;49455;52.252;9.124;2023-05-13T11:56:25;99951.84;;;22.61
49154;BMP280;49455;52.252;9.124;2023-05-13T12:01:26;99941.00;;;23.27
49154;BMP280;49455;52.252;9.124;2023-05-13T12:06:26;99932.97;;;23.33
49154;BMP280;49455;52.252;9.124;2023-05-13T12:11:28;99946.13;;;23.34
49154;BMP280;49455;52.252;9.124;2023-05-13T12:16:28;99932.72;;;23.44
49154;BMP280;49455;52.252;9.124;2023-05-13T12:21:32;99943.72;;;23.24
49154;BMP280;49455;52.252;9.124;2023-05-13T12:26:32;99939.00;;;22.94
49154;BMP280;49455;52.252;9.124;2023-05-13T12:31:33;99950.09;;;23.11
49154;BMP280;49455;52.252;9.124;2023-05-13T12:36:37;99942.00;;;23.20
49154;BMP280;49455;52.252;9.124;2023-05-13T12:41:40;99939.94;;;23.78
49154;BMP280;49455;52.252;9.124;2023-05-13T12:46:51;99940.44;;;23.55
49154;BMP280;49455;52.252;9.124;2023-05-13T12:51:52;99934.91;;;23.68
49154;BMP280;49455;52.252;9.124;2023-05-13T12:56:52;99934.94;;;24.04
49154;BMP280;49455;52.252;9.124;2023-05-13T13:01:52;99950.22;;;23.05
49154;BMP280;49455;52.252;9.124;2023-05-13T13:06:53;99938.28;;;22.85
49154;BMP280;49455;52.252;9.124;2023-05-13T13:11:53;99934.47;;;23.87
49154;BMP280;49455;52.252;9.124;2023-05-13T13:16:54;99938.16;;;24.19
49154;BMP280;49455;52.252;9.124;2023-05-13T13:21:54;99922.03;;;24.65
49154;BMP280;49455;52.252;9.124;2023-05-13T13:26:54;99921.91;;;23.98
49154;BMP280;49455;52.252;9.124;2023-05-13T13:31:55;99930.59;;;23.19
49154;BMP280;49455;52.252;9.124;2023-05-13T13:36:55;99924.41;;;22.20
49154;BMP280;49455;52.252;9.124;2023-05-13T13:41:55;99921.31;;;22.99
49154;BMP280;49455;52.252;9.124;2023-05-13T13:46:57;99922.69;;;22.21
49154;BMP280;49455;52.252;9.124;2023-05-13T13:51:57;99912.38;;;22.05
49154;BMP280;49455;52.252;9.124;2023-05-13T13:56:58;99902.81;;;22.53
49154;BMP280;49455;52.252;9.124;2023-05-13T14:01:58;99894.63;;;23.15
49154;BMP280;49455;52.252;9.124;2023-05-13T14:06:59;99892.47;;;24.14
49154;BMP280;49455;52.252;9.124;2023-05-13T14:11:59;99892.19;;;23.48
49154;BMP280;49455;52.252;9.124;2023-05-13T14:16:59;99901.19;;;22.94
49154;BMP280;49455;52.252;9.124;2023-05-13T14:22:00;99902.84;;;22.50
49154;BMP280;49455;52.252;9.124;2023-05-13T14:27:00;99895.09;;;21.86
49154;BMP280;49455;52.252;9.124;2023-05-13T14:32:01;99890.41;;;23.07
49154;BMP280;49455;52.252;9.124;2023-05-13T14:37:01;99874.22;;;24.40
49154;BMP280;49455;52.252;9.124;2023-05-13T14:42:01;99892.59;;;22.86
49154;BMP280;49455;52.252;9.124;2023-05-13T14:47:02;99889.38;;;22.18
49154;BMP280;49455;52.252;9.124;2023-05-13T14:52:02;99897.13;;;21.66
49154;BMP280;49455;52.252;9.124;2023-05-13T14:57:04;99897.56;;;21.37
49154;BMP280;49455;52.252;9.124;2023-05-13T15:02:05;99888.84;;;21.29
49154;BMP280;49455;52.252;9.124;2023-05-13T15:07:06;99884.91;;;22.22
49154;BMP280;49455;52.252;9.124;2023-05-13T15:12:06;99880.94;;;22.49
49154;BMP280;49455;52.252;9.124;2023-05-13T15:17:07;99880.69;;;23.09
49154;BMP280;49455;52.252;9.124;2023-05-13T15:22:08;99873.31;;;23.26
49154;BMP280;49455;52.252;9.124;2023-05-13T15:27:09;99863.63;;;23.28
49154;BMP280;49455;52.252;9.124;2023-05-13T15:32:09;99857.59;;;24.00
49154;BMP280;49455;52.252;9.124;2023-05-13T15:37:10;99858.94;;;23.80
49154;BMP280;49455;52.252;9.124;2023-05-13T15:42:10;99867.19;;;23.25
49154;BMP280;49455;52.252;9.124;2023-05-13T15:47:11;99872.44;;;22.83
49154;BMP280;49455;52.252;9.124;2023-05-13T15:52:11;99864.41;;;21.85
49154;BMP280;49455;52.252;9.124;2023-05-13T15:57:12;99850.97;;;22.55
49154;BMP280;49455;52.252;9.124;2023-05-13T16:02:12;99857.28;;;22.46
49154;BMP280;49455;52.252;9.124;2023-05-13T16:07:12;99864.81;;;22.67
49154;BMP280;49455;52.252;9.124;2023-05-13T16:12:13;99867.72;;;21.97
49154;BMP280;49455;52.252;9.124;2023-05-13T16:17:13;99864.66;;;22.27
49154;BMP280;49455;52.252;9.124;2023-05-13T16:27:28;99850.53;;;22.77
49154;BMP280;49455;52.252;9.124;2023-05-13T16:32:29;99854.38;;;22.61
49154;BMP280;49455;52.252;9.124;2023-05-13T16:37:30;99844.38;;;22.32
49154;BMP280;49455;52.252;9.124;2023-05-13T16:42:30;99845.19;;;22.35
49154;BMP280;49455;52.252;9.124;2023-05-13T16:47:31;99845.44;;;22.20
49154;BMP280;49455;52.252;9.124;2023-05-13T16:52:31;99849.63;;;21.78
49154;BMP280;49455;52.252;9.124;2023-05-13T16:57:32;99844.09;;;21.94
49154;BMP280;49455;52.252;9.124;2023-05-13T17:02:32;99841.56;;;21.87
49154;BMP280;49455;52.252;9.124;2023-05-13T17:07:33;99831.22;;;21.77
49154;BMP280;49455;52.252;9.124;2023-05-13T17:12:33;99831.59;;;21.52
49154;BMP280;49455;52.252;9.124;2023-05-13T17:17:33;99824.28;;;21.73
49154;BMP280;49455;52.252;9.124;2023-05-13T17:22:34;99823.72;;;21.52
49154;BMP280;49455;52.252;9.124;2023-05-13T17:27:34;99825.44;;;21.52
49154;BMP280;49455;52.252;9.124;2023-05-13T17:32:35;99821.31;;;21.37
49154;BMP280;49455;52.252;9.124;2023-05-13T17:37:35;99813.41;;;21.37
49154;BMP280;49455;52.252;9.124;2023-05-13T17:42:35;99816.44;;;21.03
49154;BMP280;49455;52.252;9.124;2023-05-13T17:47:36;99817.19;;;21.12
49154;BMP280;49455;52.252;9.124;2023-05-13T17:52:36;99817.31;;;21.05
49154;BMP280;49455;52.252;9.124;2023-05-13T17:57:37;99826.19;;;20.96
49154;BMP280;49455;52.252;9.124;2023-05-13T18:02:37;99826.59;;;20.58
49154;BMP280;49455;52.252;9.124;2023-05-13T18:07:37;99826.69;;;20.48
49154;BMP280;49455;52.252;9.124;2023-05-13T18:12:38;99829.56;;;20.20
49154;BMP280;49455;52.252;9.124;2023-05-13T18:17:39;99825.38;;;20.00
49154;BMP280;49455;52.252;9.124;2023-05-13T18:22:40;99829.94;;;19.71
49154;BMP280;49455;52.252;9.124;2023-05-13T18:27:40;99841.41;;;19.52
49154;BMP280;49455;52.252;9.124;2023-05-13T18:32:40;99833.59;;;19.43
49154;BMP280;49455;52.252;9.124;2023-05-13T18:37:41;99835.47;;;19.27
49154;BMP280;49455;52.252;9.124;2023-05-13T18:42:41;99844.31;;;18.99
49154;BMP280;49455;52.252;9.124;2023-05-13T18:47:42;99839.97;;;18.80
49154;BMP280;49455;52.252;9.124;2023-05-13T18:52:42;99840.03;;;18.64
49154;BMP280;49455;52.252;9.124;2023-05-13T18:57:42;99843.56;;;18.41
49154;BMP280;49455;52.252;9.124;2023-05-13T19:02:43;99844.47;;;18.18
49154;BMP280;49455;52.252;9.124;2023-05-13T19:07:43;99857.50;;;17.77
49154;BMP280;49455;52.252;9.124;2023-05-13T19:12:44;99867.91;;;17.59
49154;BMP280;49455;52.252;9.124;2023-05-13T19:17:44;99861.75;;;17.30
49154;BMP280;49455;52.252;9.124;2023-05-13T19:22:45;99872.88;;;17.00
49154;BMP280;49455;52.252;9.124;2023-05-13T19:27:46;99869.34;;;16.82
49154;BMP280;49455;52.252;9.124;2023-05-13T19:32:47;99877.03;;;16.63
49154;BMP280;49455;52.252;9.124;2023-05-13T19:37:47;99877.69;;;16.32
49154;BMP280;49455;52.252;9.124;2023-05-13T19:42:48;99874.94;;;16.13
49154;BMP280;49455;52.252;9.124;2023-05-13T19:47:49;99869.59;;;16.02
49154;BMP280;49455;52.252;9.124;2023-05-13T19:52:49;99867.00;;;16.05
49154;BMP280;49455;52.252;9.124;2023-05-13T19:57:50;99880.84;;;15.99
49154;BMP280;49455;52.252;9.124;2023-05-13T20:02:50;99884.28;;;15.93
49154;BMP280;49455;52.252;9.124;2023-05-13T20:07:50;99884.25;;;15.92
49154;BMP280;49455;52.252;9.124;2023-05-13T20:12:51;99887.00;;;16.03
49154;BMP280;49455;52.252;9.124;2023-05-13T20:17:51;99880.94;;;16.10
49154;BMP280;49455;52.252;9.124;2023-05-13T20:22:51;99880.94;;;16.10
49154;BMP280;49455;52.252;9.124;2023-05-13T20:27:52;99870.47;;;16.04
49154;BMP280;49455;52.252;9.124;2023-05-13T20:32:52;99880.88;;;16.02
49154;BMP280;49455;52.252;9.124;2023-05-13T20:37:53;99878.19;;;15.91
49154;BMP280;49455;52.252;9.124;2023-05-13T20:42:53;99885.13;;;15.91
49154;BMP280;49455;52.252;9.124;2023-05-13T20:47:54;99874.50;;;15.69
49154;BMP280;49455;52.252;9.124;2023-05-13T20:52:54;99884.53;;;15.35
49154;BMP280;49455;52.252;9.124;2023-05-13T20:57:55;99885.16;;;15.16
49154;BMP280;49455;52.252;9.124;2023-05-13T21:02:55;99887.53;;;14.98
49154;BMP280;49455;52.252;9.124;2023-05-13T21:07:56;99888.25;;;14.88
49154;BMP280;49455;52.252;9.124;2023-05-13T21:12:56;99884.03;;;14.95
49154;BMP280;49455;52.252;9.124;2023-05-13T21:17:56;99886.69;;;15.02
49154;BMP280;49455;52.252;9.124;2023-05-13T21:22:57;99883.94;;;14.92
49154;BMP280;49455;52.252;9.124;2023-05-13T21:27:57;99886.59;;;14.93
49154;BMP280;49455;52.252;9.124;2023-05-13T21:32:58;99890.84;;;14.87
49154;BMP280;49455;52.252;9.124;2023-05-13T21:37:58;99889.09;;;14.84
49154;BMP280;49455;52.252;9.124;2023-05-13T21:42:59;99887.28;;;14.81
49154;BMP280;49455;52.252;9.124;2023-05-13T21:47:59;99882.00;;;14.73
49154;BMP280;49455;52.252;9.124;2023-05-13T21:53:00;99876.78;;;14.73
49154;BMP280;49455;52.252;9.124;2023-05-13T21:58:01;99878.41;;;14.65
49154;BMP280;49455;52.252;9.124;2023-05-13T22:03:01;99882.03;;;14.76
49154;BMP280;49455;52.252;9.124;2023-05-13T22:08:01;99885.28;;;14.62
49154;BMP280;49455;52.252;9.124;2023-05-13T22:13:02;99892.16;;;14.58
49154;BMP280;49455;52.252;9.124;2023-05-13T22:18:03;99889.59;;;14.60
49154;BMP280;49455;52.252;9.124;2023-05-13T22:23:06;99883.50;;;14.58
49154;BMP280;49455;52.252;9.124;2023-05-13T22:28:06;99887.63;;;14.44
49154;BMP280;49455;52.252;9.124;2023-05-13T22:33:07;99884.06;;;14.39
49154;BMP280;49455;52.252;9.124;2023-05-13T22:38:07;99877.03;;;14.32
49154;BMP280;49455;52.252;9.124;2023-05-13T22:43:07;99862.81;;;14.10
49154;BMP280;49455;52.252;9.124;2023-05-13T22:48:08;99879.88;;;13.96
49154;BMP280;49455;52.252;9.124;2023-05-13T22:53:08;99896.50;;;13.59
49154;BMP280;49455;52.252;9.124;2023-05-13T22:58:09;99877.91;;;13.83
49154;BMP280;49455;52.252;9.124;2023-05-13T23:03:09;99882.47;;;13.96
49154;BMP280;49455;52.252;9.124;2023-05-13T23:08:09;99884.88;;;13.84
49154;BMP280;49455;52.252;9.124;2023-05-13T23:13:10;99886.59;;;13.38
49154;BMP280;49455;52.252;9.124;2023-05-13T23:18:10;99893.63;;;13.01
49154;BMP280;49455;52.252;9.124;2023-05-13T23:23:11;99891.09;;;13.04
49154;BMP280;49455;52.252;9.124;2023-05-13T23:28:11;99887.56;;;13.01
49154;BMP280;49455;52.252;9.124;2023-05-13T23:33:12;99894.66;;;13.09
49154;BMP280;49455;52.252;9.124;2023-05-13T23:38:12;99890.66;;;13.26
49154;BMP280;49455;52.252;9.124;2023-05-13T23:43:13;99884.94;;;13.42
49154;BMP280;49455;52.252;9.124;2023-05-13T23:48:13;99887.63;;;13.48
49154;BMP280;49455;52.252;9.124;2023-05-13T23:53:13;99892.88;;;13.51
49154;BMP280;49455;52.252;9.124;2023-05-13T23:58:14;99880.06;;;13.58
